createdAt,value
2018-05-15T00:00:08.495Z,0.23
2018-05-15T00:02:37.316Z,0.30
2018-05-15T00:05:04.706Z,0.20
2018-05-15T00:07:31.585Z,0.30
2018-05-15T00:09:59.689Z,0.20
2018-05-15T00:12:26.592Z,0.13
2018-05-15T00:14:53.502Z,0.30
2018-05-15T00:17:20.515Z,0.20
2018-05-15T00:19:47.405Z,0.20
2018-05-15T00:22:14.320Z,0.20
2018-05-15T00:24:41.971Z,0.20
2018-05-15T00:27:08.886Z,0.00
2018-05-15T00:29:35.946Z,0.07
2018-05-15T00:32:02.825Z,0.00
2018-05-15T00:34:30.463Z,0.00
2018-05-15T00:36:57.369Z,0.13
2018-05-15T00:39:24.272Z,0.00
2018-05-15T00:41:51.250Z,0.00
2018-05-15T00:44:18.167Z,0.00
2018-05-15T00:46:45.793Z,0.00
2018-05-15T00:49:12.676Z,0.10
2018-05-15T00:51:39.824Z,0.00
2018-05-15T00:54:06.775Z,0.00
2018-05-15T00:56:33.664Z,0.00
2018-05-15T00:59:00.546Z,0.10
2018-05-15T01:01:27.552Z,0.10
2018-05-15T01:03:55.725Z,0.20
2018-05-15T01:06:23.717Z,0.10
2018-05-15T01:08:50.580Z,0.00
2018-05-15T01:11:18.208Z,0.00
2018-05-15T01:13:45.100Z,0.00
2018-05-15T01:16:13.133Z,0.20
2018-05-15T01:18:40.401Z,0.10
2018-05-15T01:21:08.021Z,0.20
2018-05-15T01:23:34.923Z,0.30
2018-05-15T01:26:02.532Z,0.30
2018-05-15T01:28:29.449Z,0.30
2018-05-15T01:30:56.393Z,0.10
2018-05-15T01:33:23.288Z,0.10
2018-05-15T01:35:50.172Z,0.10
2018-05-15T01:38:18.611Z,0.20
2018-05-15T01:40:45.914Z,0.10
2018-05-15T01:43:13.073Z,0.00
2018-05-15T01:45:41.593Z,0.17
2018-05-15T01:48:08.484Z,0.00
2018-05-15T01:50:35.376Z,0.10
2018-05-15T01:53:02.388Z,0.10
2018-05-15T01:55:29.868Z,0.00
2018-05-15T01:57:56.737Z,0.10
2018-05-15T02:00:23.632Z,0.00
2018-05-15T02:02:50.537Z,0.10
2018-05-15T02:05:18.706Z,0.00
2018-05-15T02:07:48.669Z,0.20
2018-05-15T02:10:15.540Z,0.10
2018-05-15T02:12:42.441Z,0.20
2018-05-15T02:15:10.461Z,0.10
2018-05-15T02:17:37.375Z,0.00
2018-05-15T02:20:04.408Z,0.00
2018-05-15T02:22:31.741Z,0.10
2018-05-15T02:24:58.629Z,0.30
2018-05-15T02:27:25.527Z,0.00
2018-05-15T02:29:53.207Z,0.10
2018-05-15T02:32:20.172Z,0.00
2018-05-15T02:34:47.077Z,0.10
2018-05-15T02:37:14.722Z,0.10
2018-05-15T02:39:42.369Z,0.00
2018-05-15T02:42:09.282Z,0.17
2018-05-15T02:44:37.349Z,0.10
2018-05-15T02:47:04.252Z,0.20
2018-05-15T02:49:31.892Z,0.20
2018-05-15T02:51:59.094Z,0.40
2018-05-15T02:54:26.027Z,0.20
2018-05-15T02:56:53.305Z,0.20
2018-05-15T02:59:20.226Z,0.10
2018-05-15T03:01:47.102Z,0.20
2018-05-15T03:04:13.991Z,0.10
2018-05-15T03:06:42.809Z,0.17
2018-05-15T03:09:09.722Z,0.10
2018-05-15T03:11:36.758Z,0.20
2018-05-15T03:14:03.603Z,0.10
2018-05-15T03:16:31.285Z,0.20
2018-05-15T03:18:59.082Z,0.10
2018-05-15T03:21:26.893Z,0.10
2018-05-15T03:23:53.764Z,0.00
2018-05-15T03:26:20.676Z,0.10
2018-05-15T03:28:48.500Z,0.10
2018-05-15T03:31:15.413Z,0.07
2018-05-15T03:33:42.840Z,0.27
2018-05-15T03:36:10.713Z,0.30
2018-05-15T03:38:38.331Z,0.40
2018-05-15T03:41:05.221Z,0.50
2018-05-15T03:43:32.853Z,0.27
2018-05-15T03:45:59.760Z,0.20
2018-05-15T03:48:26.656Z,0.10
2018-05-15T03:50:53.990Z,0.10
2018-05-15T03:53:20.887Z,0.20
2018-05-15T03:55:48.175Z,0.20
2018-05-15T03:58:18.123Z,0.10
2018-05-15T04:00:57.112Z,0.30
2018-05-15T04:03:37.354Z,0.30
2018-05-15T04:06:16.160Z,0.20
2018-05-15T04:08:43.176Z,0.10
2018-05-15T04:11:10.099Z,0.10
2018-05-15T04:13:39.104Z,0.20
2018-05-15T04:16:06.009Z,0.20
2018-05-15T04:18:33.199Z,0.20
2018-05-15T04:21:00.316Z,0.30
2018-05-15T04:23:28.942Z,0.20
2018-05-15T04:25:55.813Z,0.10
2018-05-15T04:28:22.701Z,0.20
2018-05-15T04:30:50.076Z,0.30
2018-05-15T04:33:17.008Z,0.20
2018-05-15T04:35:43.893Z,0.30
2018-05-15T04:38:11.220Z,0.20
2018-05-15T04:40:38.104Z,0.20
2018-05-15T04:43:05.102Z,0.20
2018-05-15T04:45:32.656Z,0.27
2018-05-15T04:47:59.532Z,0.13
2018-05-15T04:50:27.135Z,0.20
2018-05-15T04:52:54.392Z,0.17
2018-05-15T04:55:21.845Z,0.20
2018-05-15T04:57:49.296Z,0.10
2018-05-15T05:00:16.999Z,0.20
2018-05-15T05:02:43.864Z,0.13
2018-05-15T05:05:11.472Z,0.20
2018-05-15T05:07:38.377Z,0.30
2018-05-15T05:10:05.360Z,0.10
2018-05-15T05:12:32.221Z,0.40
2018-05-15T05:15:00.002Z,0.20
2018-05-15T05:17:26.932Z,0.20
2018-05-15T05:19:54.592Z,0.20
2018-05-15T05:22:21.960Z,0.20
2018-05-15T05:24:48.842Z,0.30
2018-05-15T05:27:15.802Z,0.40
2018-05-15T05:29:43.208Z,0.50
2018-05-15T05:32:10.100Z,0.20
2018-05-15T05:34:37.027Z,0.20
2018-05-15T05:37:04.545Z,0.23
2018-05-15T05:39:31.440Z,0.40
2018-05-15T05:41:58.341Z,0.20
2018-05-15T05:44:25.779Z,0.20
2018-05-15T05:46:55.920Z,0.20
2018-05-15T05:49:22.791Z,0.20
2018-05-15T05:51:50.421Z,0.10
2018-05-15T05:54:17.306Z,0.20
2018-05-15T05:56:44.226Z,0.10
2018-05-15T05:59:12.344Z,0.13
2018-05-15T06:01:39.227Z,0.10
2018-05-15T06:04:06.103Z,0.10
2018-05-15T06:06:32.994Z,0.20
2018-05-15T06:09:01.262Z,0.00
2018-05-15T06:11:28.676Z,0.20
2018-05-15T06:13:55.580Z,0.10
2018-05-15T06:16:22.457Z,0.10
2018-05-15T06:18:50.053Z,0.10
2018-05-15T06:21:17.706Z,0.10
2018-05-15T06:23:44.996Z,0.20
2018-05-15T06:26:11.872Z,0.00
2018-05-15T06:28:39.492Z,0.10
2018-05-15T06:31:06.360Z,0.20
2018-05-15T06:33:33.681Z,0.23
2018-05-15T06:36:01.413Z,0.00
2018-05-15T06:38:28.316Z,0.20
2018-05-15T06:40:55.955Z,0.10
2018-05-15T06:43:23.222Z,0.20
2018-05-15T06:45:50.241Z,0.10
2018-05-15T06:48:17.441Z,0.00
2018-05-15T06:50:45.144Z,0.10
2018-05-15T06:53:12.057Z,0.20
2018-05-15T06:55:39.681Z,0.10
2018-05-15T06:58:08.580Z,0.10
2018-05-15T07:00:36.260Z,0.20
2018-05-15T07:03:03.912Z,0.10
2018-05-15T07:05:31.093Z,0.20
2018-05-15T07:07:57.973Z,0.10
2018-05-15T07:10:24.893Z,0.20
2018-05-15T07:12:53.689Z,0.03
2018-05-15T07:15:20.613Z,0.20
2018-05-15T07:17:47.521Z,0.20
2018-05-15T07:20:14.972Z,0.87
2018-05-15T07:22:41.890Z,0.10
2018-05-15T07:25:08.809Z,0.10
2018-05-15T07:27:36.151Z,0.10
2018-05-15T07:30:03.792Z,0.10
2018-05-15T07:32:30.689Z,0.10
2018-05-15T07:34:57.654Z,0.07
2018-05-15T07:37:25.039Z,0.10
2018-05-15T07:39:52.674Z,0.10
2018-05-15T07:42:21.081Z,0.10
2018-05-15T07:44:48.724Z,0.10
2018-05-15T07:47:15.620Z,0.20
2018-05-15T07:49:44.061Z,0.00
2018-05-15T07:52:11.695Z,0.10
2018-05-15T07:54:38.580Z,0.00
2018-05-15T07:57:06.021Z,0.20
2018-05-15T07:59:33.332Z,0.00
2018-05-15T08:02:01.055Z,0.10
2018-05-15T08:04:28.708Z,0.00
2018-05-15T08:06:55.640Z,0.10
2018-05-15T08:09:22.512Z,0.10
2018-05-15T08:11:49.456Z,0.10
2018-05-15T08:14:17.960Z,0.03
2018-05-15T08:16:44.841Z,0.10
2018-05-15T08:19:11.774Z,0.10
2018-05-15T08:21:38.674Z,0.10
2018-05-15T08:24:05.888Z,0.10
2018-05-15T08:26:34.273Z,0.20
2018-05-15T08:29:01.181Z,0.17
2018-05-15T08:31:28.061Z,0.10
2018-05-15T08:33:55.716Z,0.07
2018-05-15T08:36:22.621Z,0.10
2018-05-15T08:38:49.537Z,0.10
2018-05-15T08:41:16.501Z,0.10
2018-05-15T08:43:43.396Z,0.10
2018-05-15T08:46:10.298Z,0.00
2018-05-15T08:48:38.160Z,0.10
2018-05-15T08:51:05.072Z,0.00
2018-05-15T08:53:32.736Z,0.10
2018-05-15T08:56:00.428Z,0.10
2018-05-15T08:58:27.332Z,0.10
2018-05-15T09:00:55.343Z,0.10
2018-05-15T09:03:23.148Z,0.00
2018-05-15T09:05:50.026Z,0.10
2018-05-15T09:08:16.901Z,0.20
2018-05-15T09:10:43.785Z,0.30
2018-05-15T09:13:10.677Z,0.20
2018-05-15T09:15:37.588Z,0.10
2018-05-15T09:18:05.945Z,0.07
2018-05-15T09:20:32.833Z,0.10
2018-05-15T09:22:59.713Z,0.10
2018-05-15T09:25:26.989Z,0.10
2018-05-15T09:27:54.880Z,0.00
2018-05-15T09:30:21.756Z,0.10
2018-05-15T09:32:49.002Z,0.10
2018-05-15T09:35:16.637Z,0.10
2018-05-15T09:37:44.661Z,0.30
2018-05-15T09:40:13.161Z,0.20
2018-05-15T09:42:40.042Z,0.20
2018-05-15T09:45:06.928Z,0.20
2018-05-15T09:47:34.817Z,0.10
2018-05-15T09:50:01.725Z,0.10
2018-05-15T09:52:31.777Z,0.07
2018-05-15T09:54:58.660Z,0.23
2018-05-15T09:57:25.556Z,0.20
2018-05-15T09:59:52.446Z,0.20
2018-05-15T10:02:19.444Z,0.10
2018-05-15T10:04:46.879Z,0.10
2018-05-15T10:07:13.785Z,0.20
2018-05-15T10:09:41.065Z,0.20
2018-05-15T10:12:07.967Z,0.10
2018-05-15T10:14:35.847Z,0.20
2018-05-15T10:17:02.840Z,0.10
2018-05-15T10:19:29.729Z,0.13
2018-05-15T10:21:56.626Z,0.20
2018-05-15T10:24:23.529Z,0.10
2018-05-15T10:26:50.413Z,0.20
2018-05-15T10:29:21.290Z,0.20
2018-05-15T10:31:48.980Z,0.27
2018-05-15T10:34:15.894Z,0.10
2018-05-15T10:36:42.777Z,0.20
2018-05-15T10:39:10.010Z,0.20
2018-05-15T10:41:36.989Z,0.20
2018-05-15T10:44:03.966Z,0.20
2018-05-15T10:46:30.896Z,0.27
2018-05-15T10:48:57.804Z,0.27
2018-05-15T10:51:24.698Z,0.20
2018-05-15T10:53:51.785Z,0.17
2018-05-15T10:56:19.054Z,0.40
2018-05-15T10:58:45.944Z,0.20
2018-05-15T11:01:12.920Z,0.30
2018-05-15T11:03:39.829Z,0.30
2018-05-15T11:06:07.401Z,0.30
2018-05-15T11:08:34.705Z,0.30
2018-05-15T11:11:01.604Z,0.20
2018-05-15T11:13:28.487Z,0.70
2018-05-15T11:15:56.568Z,0.30
2018-05-15T11:18:43.443Z,0.30
2018-05-15T11:24:35.500Z,0.27
2018-05-15T11:27:02.409Z,0.40
2018-05-15T11:29:29.361Z,0.40
2018-05-15T11:31:56.249Z,0.27
2018-05-15T11:34:23.129Z,0.20
2018-05-15T11:36:50.037Z,0.33
2018-05-15T11:39:16.960Z,0.30
2018-05-15T11:41:44.085Z,0.37
2018-05-15T11:44:10.963Z,0.40
2018-05-15T11:46:37.860Z,0.53
2018-05-15T11:49:06.100Z,0.70
2018-05-15T11:51:32.759Z,0.73
2018-05-15T11:53:59.607Z,0.80
2018-05-15T11:56:27.061Z,0.97
2018-05-15T11:58:53.968Z,0.70
2018-05-15T12:01:20.872Z,0.93
2018-05-15T12:03:47.816Z,0.63
2018-05-15T12:06:15.572Z,1.10
2018-05-15T12:08:42.457Z,0.70
2018-05-15T12:11:09.377Z,0.60
2018-05-15T12:13:36.245Z,0.80
2018-05-15T12:16:03.222Z,0.70
2018-05-15T12:18:31.774Z,0.70
2018-05-15T12:20:58.719Z,0.70
2018-05-15T12:23:25.591Z,0.70
2018-05-15T12:25:52.956Z,0.80
2018-05-15T12:28:19.840Z,0.67
2018-05-15T12:30:47.900Z,0.70
2018-05-15T12:33:14.828Z,0.60
2018-05-15T12:35:41.759Z,0.70
2018-05-15T12:38:08.655Z,0.63
2018-05-15T12:40:35.556Z,0.60
2018-05-15T12:43:03.037Z,0.73
2018-05-15T12:45:30.038Z,0.70
2018-05-15T12:47:57.159Z,0.80
2018-05-15T12:50:23.970Z,0.70
2018-05-15T12:52:50.891Z,1.00
2018-05-15T12:55:19.042Z,0.70
2018-05-15T12:57:45.916Z,1.00
2018-05-15T13:00:12.809Z,1.33
2018-05-15T13:02:39.693Z,1.30
2018-05-15T13:05:06.604Z,1.40
2018-05-15T13:07:34.797Z,1.00
2018-05-15T13:10:01.686Z,1.00
2018-05-15T13:12:28.569Z,1.03
2018-05-15T13:14:55.464Z,1.40
2018-05-15T13:17:23.324Z,0.90
2018-05-15T13:19:51.328Z,1.17
2018-05-15T13:22:18.970Z,1.23
2018-05-15T13:24:45.905Z,1.30
2018-05-15T13:27:12.780Z,1.37
2018-05-15T13:29:39.644Z,1.13
2018-05-15T13:32:08.077Z,1.20
2018-05-15T13:34:35.688Z,1.00
2018-05-15T13:37:03.301Z,0.90
2018-05-15T13:39:32.145Z,1.10
2018-05-15T13:41:59.026Z,1.10
2018-05-15T13:44:28.518Z,1.10
2018-05-15T13:46:56.569Z,1.00
2018-05-15T13:49:23.432Z,1.20
2018-05-15T13:51:50.313Z,1.00
2018-05-15T13:54:17.736Z,1.30
2018-05-15T13:56:46.297Z,1.37
2018-05-15T13:59:14.021Z,1.30
2018-05-15T14:01:41.224Z,1.17
2018-05-15T14:04:08.140Z,1.10
2018-05-15T14:06:35.041Z,1.30
2018-05-15T14:09:04.877Z,1.50
2018-05-15T14:11:31.763Z,1.30
2018-05-15T14:13:58.638Z,1.23
2018-05-15T14:16:26.169Z,1.30
2018-05-15T14:18:53.046Z,1.50
2018-05-15T14:21:21.629Z,1.40
2018-05-15T14:23:49.629Z,1.47
2018-05-15T14:26:16.509Z,1.43
2018-05-15T14:28:43.402Z,1.40
2018-05-15T14:31:10.925Z,1.57
2018-05-15T14:33:38.743Z,3.20
2018-05-15T14:36:05.634Z,3.00
2018-05-15T14:38:32.595Z,2.33
2018-05-15T14:40:59.468Z,1.73
2018-05-15T14:43:26.470Z,1.40
2018-05-15T14:45:53.847Z,1.50
2018-05-15T14:48:21.477Z,1.50
2018-05-15T14:54:06.746Z,1.80
2018-05-15T14:56:35.651Z,1.70
2018-05-15T14:59:02.538Z,2.63
2018-05-15T15:01:30.166Z,2.17
2018-05-15T15:03:58.253Z,2.20
2018-05-15T15:06:25.116Z,2.00
2018-05-15T15:08:53.220Z,2.00
2018-05-15T15:11:20.222Z,1.80
2018-05-15T15:13:47.116Z,1.83
2018-05-15T15:16:13.989Z,2.00
2018-05-15T15:18:41.622Z,2.00
2018-05-15T15:21:09.121Z,2.10
2018-05-15T15:23:37.203Z,2.03
2018-05-15T15:26:05.161Z,1.93
2018-05-15T15:28:32.036Z,1.90
2018-05-15T15:30:58.901Z,1.73
2018-05-15T15:33:29.839Z,1.77
2018-05-15T15:35:56.737Z,1.93
2018-05-15T15:38:25.190Z,1.90
2018-05-15T15:40:52.983Z,1.63
2018-05-15T15:43:20.610Z,1.63
2018-05-15T15:45:47.965Z,4.80
2018-05-15T15:48:14.856Z,3.27
2018-05-15T15:50:41.851Z,3.93
2018-05-15T15:53:08.712Z,2.90
2018-05-15T15:55:36.141Z,2.67
2018-05-15T15:58:03.091Z,2.00
2018-05-15T16:00:29.965Z,1.83
2018-05-15T16:02:56.840Z,2.07
2018-05-15T16:05:23.728Z,2.10
2018-05-15T16:07:50.620Z,2.70
2018-05-15T16:10:22.449Z,2.00
2018-05-15T16:12:49.329Z,1.97
2018-05-15T16:15:16.216Z,1.93
2018-05-15T16:17:43.476Z,1.83
2018-05-15T16:20:10.501Z,1.53
2018-05-15T16:22:37.482Z,2.40
2018-05-15T16:25:06.490Z,1.60
2018-05-15T16:27:34.107Z,1.60
2018-05-15T16:30:00.978Z,1.87
2018-05-15T16:32:30.177Z,1.70
2018-05-15T16:34:58.781Z,1.70
2018-05-15T16:37:26.433Z,1.47
2018-05-15T16:39:53.380Z,1.70
2018-05-15T16:42:20.995Z,1.70
2018-05-15T16:44:47.874Z,1.90
2018-05-15T16:47:17.688Z,2.17
2018-05-15T16:49:44.590Z,2.30
2018-05-15T16:52:11.467Z,2.00
2018-05-15T16:54:38.348Z,2.77
2018-05-15T16:57:05.213Z,2.40
2018-05-15T16:59:34.294Z,2.00
2018-05-15T17:02:02.426Z,1.93
2018-05-15T17:04:29.302Z,1.87
2018-05-15T17:06:56.176Z,1.83
2018-05-15T17:09:23.561Z,1.80
2018-05-15T17:11:50.561Z,1.97
2018-05-15T17:14:17.447Z,1.67
2018-05-15T17:16:47.163Z,2.07
2018-05-15T17:19:14.041Z,1.87
2018-05-15T17:21:40.907Z,1.70
2018-05-15T17:24:09.809Z,2.00
2018-05-15T17:26:36.941Z,2.07
2018-05-15T17:29:03.834Z,1.73
2018-05-15T17:31:31.343Z,1.83
2018-05-15T17:33:58.224Z,1.50
2018-05-15T17:36:27.283Z,1.53
2018-05-15T17:38:54.582Z,1.57
2018-05-15T17:41:21.466Z,1.70
2018-05-15T17:43:48.369Z,1.80
2018-05-15T17:46:15.721Z,2.80
2018-05-15T17:48:43.136Z,2.33
2018-05-15T17:51:10.008Z,1.90
2018-05-15T17:53:36.882Z,1.57
2018-05-15T17:56:03.766Z,1.60
2018-05-15T17:58:30.634Z,1.50
2018-05-15T18:00:58.622Z,1.37
2018-05-15T18:03:25.526Z,1.40
2018-05-15T18:05:52.408Z,1.50
2018-05-15T18:08:19.323Z,1.47
2018-05-15T18:10:46.193Z,1.40
2018-05-15T18:13:14.350Z,1.40
2018-05-15T18:15:41.623Z,1.73
2018-05-15T18:18:08.492Z,1.60
2018-05-15T18:20:35.360Z,1.70
2018-05-15T18:23:02.261Z,2.00
2018-05-15T18:25:30.399Z,1.73
2018-05-15T18:27:57.304Z,1.80
2018-05-15T18:30:24.931Z,1.90
2018-05-15T18:32:51.833Z,1.60
2018-05-15T18:35:18.731Z,2.43
2018-05-15T18:37:46.814Z,1.90
2018-05-15T18:40:14.429Z,1.97
2018-05-15T18:42:41.312Z,1.93
2018-05-15T18:45:10.089Z,1.90
2018-05-15T18:47:37.002Z,2.10
2018-05-15T18:50:08.188Z,1.63
2018-05-15T18:52:35.437Z,1.60
2018-05-15T18:55:03.105Z,1.80
2018-05-15T18:57:30.036Z,2.27
2018-05-15T18:59:58.564Z,1.93
2018-05-15T19:02:26.017Z,1.80
2018-05-15T19:04:52.991Z,2.13
2018-05-15T19:07:20.763Z,2.00
2018-05-15T19:09:47.680Z,1.80
2018-05-15T19:12:14.573Z,2.13
2018-05-15T19:14:43.304Z,1.50
2018-05-15T19:17:10.192Z,1.97
2018-05-15T19:19:37.163Z,2.03
2018-05-15T19:22:04.012Z,2.00
2018-05-15T19:24:30.897Z,2.23
2018-05-15T19:27:01.877Z,2.27
2018-05-15T19:29:29.850Z,1.87
2018-05-15T19:31:59.039Z,2.00
2018-05-15T19:34:29.294Z,1.73
2018-05-15T19:37:03.829Z,1.93
2018-05-15T19:39:43.054Z,1.80
2018-05-15T19:42:10.332Z,2.07
2018-05-15T19:44:37.247Z,1.73
2018-05-15T19:47:04.212Z,1.83
2018-05-15T19:49:31.092Z,2.47
2018-05-15T19:51:59.209Z,1.53
2018-05-15T19:54:26.414Z,1.83
2018-05-15T19:56:53.977Z,2.20
2018-05-15T19:59:21.145Z,1.87
2018-05-15T20:01:49.545Z,2.00
2018-05-15T20:04:18.671Z,1.93
2018-05-15T20:06:45.607Z,2.00
2018-05-15T20:09:13.544Z,1.90
2018-05-15T20:11:40.533Z,1.97
2018-05-15T20:14:08.360Z,2.03
2018-05-15T20:16:36.859Z,1.63
2018-05-15T20:19:04.680Z,1.90
2018-05-15T20:21:31.769Z,1.80
2018-05-15T20:24:04.684Z,1.70
2018-05-15T20:26:31.645Z,1.47
2018-05-15T20:29:03.654Z,2.20
2018-05-15T20:31:31.005Z,1.50
2018-05-15T20:33:57.960Z,1.53
2018-05-15T20:36:25.737Z,1.70
2018-05-15T20:38:52.677Z,1.63
2018-05-15T20:41:20.709Z,1.63
2018-05-15T20:43:48.396Z,2.00
2018-05-15T20:46:15.737Z,1.87
2018-05-15T20:48:45.304Z,2.03
2018-05-15T20:51:12.244Z,2.00
2018-05-15T20:53:43.020Z,1.80
2018-05-15T20:56:10.654Z,2.37
2018-05-15T20:58:37.558Z,1.80
2018-05-15T21:01:05.312Z,1.83
2018-05-15T21:03:43.547Z,1.70
2018-05-15T21:06:22.977Z,1.90
2018-05-15T21:08:49.967Z,1.77
2018-05-15T21:11:18.174Z,2.10
2018-05-15T21:13:45.439Z,1.67
2018-05-15T21:16:21.777Z,1.63
2018-05-15T21:21:34.717Z,1.63
2018-05-15T21:24:02.277Z,1.63
2018-05-15T21:26:30.042Z,1.70
2018-05-15T21:28:56.970Z,1.87
2018-05-15T21:31:24.349Z,1.63
2018-05-15T21:33:51.319Z,1.83
2018-05-15T21:36:18.310Z,1.80
2018-05-15T21:38:46.983Z,1.70
2018-05-15T21:41:13.990Z,2.57
2018-05-15T21:43:43.760Z,2.20
2018-05-15T21:46:11.561Z,1.80
2018-05-15T21:48:38.482Z,2.33
2018-05-15T21:51:06.333Z,1.90
2018-05-15T21:53:33.989Z,2.10
2018-05-15T21:56:00.920Z,1.93
2018-05-15T21:58:28.229Z,2.20
2018-05-15T22:01:07.037Z,2.13
2018-05-15T22:03:34.010Z,2.30
2018-05-15T22:06:00.943Z,2.27
2018-05-15T22:08:27.870Z,2.27
2018-05-15T22:10:56.785Z,2.43
2018-05-15T22:13:36.277Z,2.17
2018-05-15T22:16:16.961Z,2.03
2018-05-15T22:18:56.714Z,1.93
2018-05-15T22:21:36.504Z,2.30
2018-05-15T22:24:05.857Z,2.34
2018-05-15T22:26:37.877Z,2.67
2018-05-15T22:29:13.201Z,2.70
2018-05-15T22:31:40.954Z,1.90
2018-05-15T22:34:09.389Z,2.50
2018-05-15T22:36:37.187Z,2.50
2018-05-15T22:39:11.360Z,2.23
2018-05-15T22:41:39.079Z,2.10
2018-05-15T22:44:07.936Z,2.50
2018-05-15T22:46:34.818Z,2.50
2018-05-15T22:49:02.762Z,2.40
2018-05-15T22:51:29.654Z,1.97
2018-05-15T22:53:56.533Z,2.70
2018-05-15T22:56:24.964Z,2.27
2018-05-15T22:58:51.961Z,2.10
2018-05-15T23:01:18.869Z,2.53
2018-05-15T23:03:46.552Z,2.20
2018-05-15T23:06:13.435Z,2.23
2018-05-15T23:08:41.124Z,2.00
2018-05-15T23:11:09.538Z,2.30
2018-05-15T23:13:36.428Z,2.47
2018-05-15T23:16:03.316Z,1.93
2018-05-15T23:18:30.211Z,2.20
2018-05-15T23:21:01.515Z,2.37
2018-05-15T23:23:28.413Z,1.80
2018-05-15T23:25:55.313Z,2.30
2018-05-15T23:28:22.952Z,2.27
2018-05-15T23:30:49.820Z,2.60
2018-05-15T23:33:18.272Z,2.50
2018-05-15T23:35:45.245Z,2.30
2018-05-15T23:38:12.860Z,2.50
2018-05-15T23:40:39.736Z,2.33
2018-05-15T23:43:06.627Z,2.67
2018-05-15T23:45:34.800Z,2.83
2018-05-15T23:48:01.676Z,2.30
2018-05-15T23:50:28.567Z,2.30
2018-05-15T23:52:55.464Z,2.07
2018-05-15T23:55:22.389Z,2.70
2018-05-15T23:57:50.193Z,2.43
